createdAt,value
2019-03-05T05:11:37.220Z,4.00
2019-03-05T05:12:37.214Z,4.00
2019-03-05T05:13:37.201Z,4.00
2019-03-05T05:14:37.188Z,4.00
2019-03-05T05:15:37.178Z,4.00
2019-03-05T05:16:37.167Z,4.00
2019-03-05T05:17:37.154Z,4.00
2019-03-05T05:18:37.142Z,4.00
2019-03-05T05:19:37.137Z,4.00
2019-03-05T05:21:37.116Z,4.00
2019-03-05T05:22:37.110Z,4.00
2019-03-05T05:23:37.090Z,4.00
2019-03-05T05:24:37.078Z,8.00
2019-03-05T05:25:37.064Z,4.00
2019-03-05T05:26:37.053Z,8.00
2019-03-05T05:27:37.041Z,8.00
2019-03-05T05:28:37.035Z,12.00
2019-03-05T05:29:37.024Z,16.00
2019-03-05T05:30:37.014Z,12.00
2019-03-05T05:31:37.001Z,16.00
2019-03-05T05:32:36.987Z,16.00
2019-03-05T05:33:36.973Z,20.00
2019-03-05T05:34:36.963Z,20.00
2019-03-05T05:35:36.963Z,20.00
2019-03-05T05:36:36.940Z,28.00
2019-03-05T05:37:36.929Z,32.00
2019-03-05T05:38:36.939Z,36.00
2019-03-05T05:39:36.912Z,36.00
2019-03-05T05:40:36.893Z,36.00
2019-03-05T05:41:36.882Z,40.00
2019-03-05T05:42:36.871Z,36.00
2019-03-05T05:43:36.860Z,44.00
2019-03-05T05:44:36.849Z,48.00
2019-03-05T05:45:36.840Z,60.00
2019-03-05T05:46:36.826Z,64.00
2019-03-05T05:47:36.816Z,72.00
2019-03-05T05:48:36.812Z,72.00
2019-03-05T05:49:36.796Z,80.00
2019-03-05T05:50:36.787Z,84.00
2019-03-05T05:51:36.772Z,92.00
2019-03-05T05:52:36.759Z,104.00
2019-03-05T05:53:36.748Z,96.00
2019-03-05T05:54:36.735Z,104.00
2019-03-05T05:55:36.731Z,112.00
2019-03-05T05:56:36.714Z,128.00
2019-03-05T05:57:36.710Z,140.00
2019-03-05T05:58:36.707Z,160.00
2019-03-05T05:59:36.679Z,176.00
2019-03-05T06:00:36.676Z,196.00
2019-03-05T06:01:36.669Z,208.00
2019-03-05T06:02:36.646Z,212.00
2019-03-05T06:03:37.893Z,224.00
2019-03-05T06:04:36.623Z,312.00
2019-03-05T06:05:36.611Z,324.00
2019-03-05T06:06:36.600Z,352.00
2019-03-05T06:07:36.594Z,344.00
2019-03-05T06:08:36.583Z,324.00
2019-03-05T06:09:36.567Z,348.00
2019-03-05T06:10:36.555Z,356.00
2019-03-05T06:11:36.547Z,396.00
2019-03-05T06:12:36.538Z,432.00
2019-03-05T06:13:36.527Z,492.00
2019-03-05T06:14:36.510Z,524.00
2019-03-05T06:15:36.498Z,536.00
2019-03-05T06:16:36.487Z,528.00
2019-03-05T06:17:36.476Z,524.00
2019-03-05T06:18:36.475Z,544.00
2019-03-05T06:19:36.457Z,636.00
2019-03-05T06:20:36.443Z,704.00
2019-03-05T06:21:36.432Z,764.00
2019-03-05T06:22:36.423Z,808.00
2019-03-05T06:23:36.412Z,876.00
2019-03-05T06:24:36.399Z,932.00
2019-03-05T06:25:36.385Z,996.00
2019-03-05T06:26:36.373Z,1044.00
2019-03-05T06:27:36.367Z,1084.00
2019-03-05T06:28:36.356Z,1148.00
2019-03-05T06:29:36.346Z,1220.00
2019-03-05T06:30:36.328Z,1240.00
2019-03-05T06:31:36.324Z,1220.00
2019-03-05T06:32:36.308Z,1252.00
2019-03-05T06:33:36.299Z,1312.00
2019-03-05T06:34:36.284Z,1364.00
2019-03-05T06:35:36.274Z,1392.00
2019-03-05T06:36:36.262Z,1408.00
2019-03-05T06:37:36.254Z,1396.00
2019-03-05T06:38:36.238Z,1376.00
2019-03-05T06:39:36.228Z,1356.00
2019-03-05T06:40:36.216Z,1332.00
2019-03-05T06:41:36.205Z,1300.00
2019-03-05T06:42:36.192Z,1296.00
2019-03-05T06:43:36.184Z,1332.00
2019-03-05T06:44:36.172Z,1384.00
2019-03-05T06:45:36.163Z,1408.00
2019-03-05T06:46:36.151Z,1368.00
2019-03-05T06:47:36.139Z,1396.00
2019-03-05T06:48:36.124Z,1440.00
2019-03-05T06:49:36.121Z,1504.00
2019-03-05T06:50:36.106Z,1384.00
2019-03-05T06:51:36.091Z,1280.00
2019-03-05T06:52:36.079Z,1340.00
2019-03-05T06:53:36.068Z,1616.00
2019-03-05T06:54:36.058Z,1852.00
2019-03-05T06:55:36.045Z,1752.00
2019-03-05T06:56:36.035Z,1908.00
2019-03-05T06:57:36.024Z,2028.00
2019-03-05T06:58:36.017Z,2032.00
2019-03-05T06:59:36.002Z,2036.00
2019-03-05T07:00:35.997Z,2040.00
2019-03-05T07:01:35.984Z,1780.00
2019-03-05T07:02:35.967Z,1840.00
2019-03-05T07:03:35.961Z,2044.00
2019-03-05T07:04:35.943Z,2160.00
2019-03-05T07:05:35.937Z,2568.00
2019-03-05T07:06:35.926Z,2672.00
2019-03-05T07:07:35.912Z,2840.00
2019-03-05T07:08:35.900Z,2816.00
2019-03-05T07:09:35.892Z,3036.00
2019-03-05T07:10:35.875Z,2824.00
2019-03-05T07:11:35.867Z,2944.00
2019-03-05T07:12:35.860Z,3124.00
2019-03-05T07:13:35.841Z,3500.00
2019-03-05T07:14:35.831Z,3456.00
2019-03-05T07:15:35.822Z,3920.00
2019-03-05T07:16:35.815Z,4156.00
2019-03-05T07:17:35.800Z,4668.00
2019-03-05T07:18:35.787Z,4772.00
2019-03-05T07:19:35.777Z,4992.00
2019-03-05T07:20:35.765Z,5440.00
2019-03-05T07:21:35.760Z,5800.00
2019-03-05T07:22:35.762Z,5884.00
2019-03-05T07:23:35.738Z,6572.00
2019-03-05T07:24:35.717Z,6992.00
2019-03-05T07:25:35.707Z,7340.00
2019-03-05T07:26:35.696Z,7332.00
2019-03-05T07:27:35.685Z,7484.00
2019-03-05T07:28:35.681Z,8276.00
2019-03-05T07:29:35.663Z,8688.00
2019-03-05T07:30:35.653Z,9152.00
2019-03-05T07:31:35.642Z,9640.00
2019-03-05T07:32:35.637Z,9832.00
2019-03-05T07:33:35.620Z,9648.00
2019-03-05T07:34:35.608Z,9340.00
2019-03-05T07:35:35.599Z,6024.00
2019-03-05T07:36:35.584Z,7352.00
2019-03-05T07:37:35.579Z,8756.00
2019-03-05T07:38:35.567Z,6428.00
2019-03-05T07:39:35.554Z,7440.00
2019-03-05T07:40:35.540Z,10116.00
2019-03-05T07:41:35.528Z,8764.00
2019-03-05T07:42:35.524Z,12288.00
2019-03-05T07:43:36.713Z,11556.00
2019-03-05T07:44:35.498Z,11180.00
2019-03-05T07:45:35.481Z,6780.00
2019-03-05T07:46:35.475Z,9068.00
2019-03-05T07:47:35.465Z,7848.00
2019-03-05T07:48:35.447Z,13264.00
2019-03-05T07:49:43.631Z,7820.00
2019-03-05T07:50:36.448Z,6848.00
2019-03-05T07:51:35.415Z,9180.00
2019-03-05T07:52:35.405Z,7692.00
2019-03-05T07:53:35.390Z,5868.00
2019-03-05T07:54:35.379Z,5516.00
2019-03-05T07:55:35.373Z,6248.00
2019-03-05T07:56:35.360Z,14972.00
2019-03-05T07:57:35.353Z,16480.00
2019-03-05T07:58:35.342Z,17536.00
2019-03-05T07:59:35.332Z,9536.00
2019-03-05T08:00:35.323Z,7388.00
2019-03-05T08:01:35.305Z,21024.00
2019-03-05T08:02:35.320Z,13680.00
2019-03-05T08:03:35.283Z,11308.00
2019-03-05T08:04:35.275Z,18496.00
2019-03-05T08:05:35.262Z,15032.00
2019-03-05T08:06:35.251Z,16736.00
2019-03-05T08:07:35.239Z,10820.00
2019-03-05T08:08:35.238Z,7636.00
2019-03-05T08:09:35.215Z,7440.00
2019-03-05T08:10:35.202Z,5864.00
2019-03-05T08:11:35.193Z,4764.00
2019-03-05T08:12:35.181Z,4152.00
2019-03-05T08:13:35.170Z,4160.00
2019-03-05T08:14:35.158Z,4264.00
2019-03-05T08:15:35.148Z,3676.00
2019-03-05T08:16:35.137Z,3280.00
2019-03-05T08:17:35.126Z,3340.00
2019-03-05T08:18:35.114Z,3912.00
2019-03-05T08:19:35.105Z,4648.00
2019-03-05T08:20:35.094Z,4376.00
2019-03-05T08:21:35.081Z,3484.00
2019-03-05T08:22:35.072Z,3692.00
2019-03-05T08:23:35.059Z,4368.00
2019-03-05T08:24:35.046Z,4976.00
2019-03-05T08:25:35.039Z,5200.00
2019-03-05T08:26:35.029Z,8580.00
2019-03-05T08:27:35.017Z,10584.00
2019-03-05T08:28:35.008Z,7464.00
2019-03-05T08:29:34.992Z,6976.00
2019-03-05T08:30:35.043Z,6284.00
2019-03-05T08:31:34.968Z,6920.00
2019-03-05T08:32:34.959Z,4568.00
2019-03-05T08:33:34.950Z,3752.00
2019-03-05T08:34:34.939Z,7544.00
2019-03-05T08:35:34.925Z,7544.00
2019-03-05T08:36:34.913Z,8860.00
2019-03-05T08:37:34.906Z,9184.00
2019-03-05T08:38:34.893Z,7932.00
2019-03-05T08:39:34.880Z,19136.00
2019-03-05T08:40:34.869Z,11048.00
2019-03-05T08:41:34.863Z,9016.00
2019-03-05T08:42:34.850Z,8956.00
2019-03-05T08:43:34.840Z,12628.00
2019-03-05T08:44:34.832Z,10316.00
2019-03-05T08:45:34.823Z,16992.00
2019-03-05T08:46:34.803Z,9968.00
2019-03-05T08:47:34.791Z,10068.00
2019-03-05T08:48:34.780Z,9900.00
2019-03-05T08:49:34.770Z,7916.00
2019-03-05T08:50:34.766Z,9120.00
2019-03-05T08:51:34.755Z,11284.00
2019-03-05T08:52:34.738Z,11836.00
2019-03-05T08:53:34.728Z,15052.00
2019-03-05T08:54:34.722Z,11316.00
2019-03-05T08:55:34.704Z,12780.00
2019-03-05T08:56:34.698Z,11820.00
2019-03-05T08:57:34.682Z,11108.00
2019-03-05T08:58:34.670Z,15652.00
2019-03-05T08:59:34.745Z,23968.00
2019-03-05T09:00:34.649Z,14184.00
2019-03-05T09:01:34.636Z,21728.00
2019-03-05T09:02:34.627Z,12680.00
2019-03-05T09:03:34.621Z,19424.00
2019-03-05T09:04:34.604Z,26240.00
2019-03-05T09:05:34.591Z,26112.00
2019-03-05T09:06:34.584Z,26656.00
2019-03-05T09:07:34.573Z,12048.00
2019-03-05T09:08:34.558Z,27744.00
2019-03-05T09:09:34.545Z,16628.00
2019-03-05T09:10:34.536Z,15024.00
2019-03-05T09:11:34.524Z,10284.00
2019-03-05T09:12:34.511Z,8976.00
2019-03-05T09:13:34.523Z,8068.00
2019-03-05T09:14:34.754Z,7824.00
2019-03-05T09:15:34.510Z,7352.00
2019-03-05T09:16:34.512Z,5484.00
2019-03-05T09:17:34.459Z,9272.00
2019-03-05T09:18:34.457Z,11048.00
2019-03-05T09:19:34.458Z,10636.00
2019-03-05T09:20:34.462Z,20704.00
2019-03-05T09:21:34.466Z,13440.00
2019-03-05T09:22:34.401Z,8396.00
2019-03-05T09:23:34.387Z,8152.00
2019-03-05T09:24:34.381Z,9524.00
2019-03-05T09:25:34.367Z,12672.00
2019-03-05T09:26:34.360Z,12860.00
2019-03-05T09:27:34.343Z,22432.00
2019-03-05T09:28:34.330Z,8780.00
2019-03-05T09:29:34.319Z,10456.00
2019-03-05T09:30:34.312Z,9892.00
2019-03-05T09:31:34.305Z,7204.00
2019-03-05T09:32:34.285Z,5352.00
2019-03-05T09:33:34.276Z,6108.00
2019-03-05T09:34:34.262Z,7160.00
2019-03-05T09:35:34.253Z,7300.00
2019-03-05T09:36:34.244Z,5952.00
2019-03-05T09:37:34.229Z,8500.00
2019-03-05T09:38:34.221Z,11368.00
2019-03-05T09:39:34.206Z,9972.00
2019-03-05T09:40:34.197Z,7656.00
2019-03-05T09:41:34.185Z,6256.00
2019-03-05T09:42:39.873Z,7452.00
2019-03-05T09:43:58.641Z,7140.00
2019-03-05T09:44:58.631Z,4316.00
2019-03-05T09:45:58.620Z,4524.00
2019-03-05T09:46:58.608Z,7276.00
2019-03-05T09:47:58.603Z,4716.00
2019-03-05T09:48:58.586Z,5380.00
2019-03-05T09:49:58.575Z,5132.00
2019-03-05T09:50:58.564Z,4536.00
2019-03-05T09:51:58.557Z,4024.00
2019-03-05T09:52:58.547Z,3372.00
2019-03-05T09:53:58.533Z,2748.00
2019-03-05T09:54:58.522Z,1948.00
2019-03-05T09:55:58.510Z,2096.00
2019-03-05T09:56:58.499Z,3508.00
2019-03-05T09:58:07.402Z,6072.00
2019-03-05T09:58:59.493Z,8612.00
2019-03-05T09:59:58.463Z,9308.00
2019-03-05T10:00:58.460Z,14244.00
2019-03-05T10:01:58.443Z,47552.00
2019-03-05T10:02:58.437Z,47712.00
2019-03-05T10:03:58.421Z,23584.00
2019-03-05T10:04:58.410Z,37280.00
2019-03-05T10:05:58.398Z,46784.00
2019-03-05T10:06:58.391Z,45952.00
2019-03-05T10:07:58.381Z,6848.00
2019-03-05T10:08:58.365Z,7800.00
2019-03-05T10:09:58.355Z,46144.00
2019-03-05T10:10:58.346Z,44384.00
2019-03-05T10:11:58.331Z,45632.00
2019-03-05T10:12:59.152Z,46144.00
2019-03-05T10:13:58.314Z,46112.00
2019-03-05T10:14:58.314Z,47744.00
2019-03-05T10:15:58.286Z,21824.00
2019-03-05T10:16:58.284Z,9752.00
2019-03-05T10:17:58.274Z,15232.00
2019-03-05T10:18:58.258Z,53088.00
2019-03-05T10:19:58.242Z,31968.00
2019-03-05T10:20:58.239Z,13476.00
2019-03-05T10:21:58.230Z,50112.00
2019-03-05T10:22:58.265Z,47136.00
2019-03-05T10:23:58.197Z,15340.00
2019-03-05T10:25:05.686Z,40576.00
2019-03-05T10:26:22.657Z,52064.00
2019-03-05T10:27:22.647Z,20864.00
2019-03-05T10:28:22.637Z,40096.00
2019-03-05T10:29:22.626Z,48896.00
2019-03-05T10:30:25.004Z,12840.00
2019-03-05T10:31:22.600Z,14796.00
2019-03-05T10:32:22.599Z,12152.00
2019-03-05T10:33:22.585Z,17012.00
2019-03-05T10:34:22.566Z,30272.00
2019-03-05T10:35:22.555Z,53280.00
2019-03-05T10:36:22.546Z,39072.00
2019-03-05T10:37:22.531Z,13340.00
2019-03-05T10:38:22.526Z,50784.00
2019-03-05T10:39:30.573Z,51904.00
2019-03-05T10:40:46.987Z,13240.00
2019-03-05T10:41:46.973Z,50688.00
2019-03-05T10:42:48.161Z,9072.00
2019-03-05T10:43:46.943Z,53664.00
2019-03-05T10:44:46.929Z,21632.00
2019-03-05T10:45:46.928Z,56224.00
2019-03-05T10:46:46.906Z,15724.00
2019-03-05T10:47:46.896Z,9896.00
2019-03-05T10:48:46.895Z,48288.00
2019-03-05T10:49:46.873Z,53664.00
2019-03-05T10:50:46.866Z,15300.00
2019-03-05T10:51:46.852Z,11836.00
2019-03-05T10:52:46.843Z,12920.00
2019-03-05T10:53:46.833Z,11164.00
2019-03-05T10:54:46.818Z,54784.00
2019-03-05T10:55:46.818Z,57184.00
2019-03-05T10:56:46.800Z,18320.00
2019-03-05T10:57:46.786Z,15812.00
2019-03-05T10:58:46.775Z,31840.00
2019-03-05T10:59:46.766Z,53408.00
2019-03-05T11:00:46.755Z,14044.00
2019-03-05T11:01:46.742Z,10136.00
2019-03-05T11:02:46.738Z,7860.00
2019-03-05T11:03:46.722Z,7312.00
2019-03-05T11:04:46.711Z,5780.00
2019-03-05T11:05:46.697Z,6612.00
2019-03-05T11:06:46.688Z,8584.00
2019-03-05T11:07:46.678Z,9632.00
2019-03-05T11:08:46.670Z,12440.00
2019-03-05T11:09:46.656Z,16864.00
2019-03-05T11:10:46.651Z,5940.00
2019-03-05T11:11:46.635Z,6292.00
2019-03-05T11:12:46.619Z,6208.00
2019-03-05T11:13:46.606Z,5940.00
2019-03-05T11:14:46.601Z,5568.00
2019-03-05T11:15:46.585Z,5304.00
2019-03-05T11:16:46.576Z,5356.00
2019-03-05T11:17:46.570Z,4748.00
2019-03-05T11:18:46.552Z,4360.00
2019-03-05T11:19:46.543Z,4204.00
2019-03-05T11:20:46.532Z,4184.00
2019-03-05T11:21:46.523Z,4092.00
2019-03-05T11:22:46.510Z,4676.00
2019-03-05T11:23:46.497Z,5228.00
2019-03-05T11:24:46.489Z,15256.00
2019-03-05T11:25:46.479Z,12760.00
2019-03-05T11:26:46.465Z,51104.00
2019-03-05T11:27:46.454Z,51616.00
2019-03-05T11:28:46.444Z,20256.00
2019-03-05T11:29:46.435Z,45920.00
2019-03-05T11:30:46.417Z,17256.00
2019-03-05T11:31:46.410Z,9640.00
2019-03-05T11:32:46.399Z,8672.00
2019-03-05T11:33:46.388Z,7472.00
2019-03-05T11:34:46.378Z,6220.00
2019-03-05T11:35:46.368Z,5116.00
2019-03-05T11:36:46.351Z,4296.00
2019-03-05T11:37:46.346Z,4492.00
2019-03-05T11:38:46.329Z,5268.00
2019-03-05T11:39:46.321Z,5780.00
2019-03-05T11:40:46.310Z,5700.00
2019-03-05T11:41:46.297Z,5060.00
2019-03-05T11:42:46.695Z,4832.00
2019-03-05T11:43:46.276Z,4568.00
2019-03-05T11:44:58.846Z,4240.00
2019-03-05T11:46:10.733Z,3812.00
2019-03-05T11:47:10.727Z,3968.00
2019-03-05T11:48:10.715Z,4552.00
2019-03-05T11:49:10.699Z,4644.00
2019-03-05T11:50:10.685Z,4748.00
2019-03-05T11:51:10.678Z,4804.00
2019-03-05T11:52:10.667Z,5040.00
2019-03-05T11:53:10.651Z,4868.00
2019-03-05T11:54:10.640Z,4936.00
2019-03-05T11:55:10.627Z,5560.00
2019-03-05T11:56:10.616Z,5848.00
2019-03-05T11:57:10.606Z,4816.00
2019-03-05T11:58:10.602Z,4108.00
2019-03-05T11:59:10.583Z,3144.00
2019-03-05T12:00:10.582Z,3112.00
2019-03-05T12:01:10.558Z,2856.00
2019-03-05T12:02:18.503Z,2264.00
2019-03-05T12:03:35.024Z,1524.00
2019-03-05T12:04:35.031Z,1420.00
2019-03-05T12:05:35.021Z,1892.00
2019-03-05T12:06:35.022Z,2648.00
2019-03-05T12:07:35.026Z,3696.00
2019-03-05T12:08:34.966Z,4612.00
2019-03-05T12:09:34.950Z,6744.00
2019-03-05T12:10:34.940Z,8788.00
2019-03-05T12:11:34.928Z,10216.00
2019-03-05T12:12:34.926Z,37888.00
2019-03-05T12:13:34.909Z,40064.00
2019-03-05T12:14:34.898Z,39648.00
2019-03-05T12:15:34.882Z,40512.00
2019-03-05T12:16:34.873Z,40992.00
2019-03-05T12:17:34.865Z,40384.00
2019-03-05T12:18:34.851Z,37088.00
2019-03-05T12:19:34.838Z,34304.00
2019-03-05T12:20:34.830Z,30816.00
2019-03-05T12:21:34.824Z,30272.00
2019-03-05T12:22:34.807Z,31680.00
2019-03-05T12:23:34.794Z,26240.00
2019-03-05T12:24:34.787Z,32832.00
2019-03-05T12:25:36.090Z,34080.00
2019-03-05T12:26:34.769Z,28320.00
2019-03-05T12:27:35.965Z,36864.00
2019-03-05T12:28:34.742Z,11172.00
2019-03-05T12:29:34.728Z,13124.00
2019-03-05T12:30:34.724Z,37280.00
2019-03-05T12:31:34.705Z,38816.00
2019-03-05T12:32:34.699Z,37472.00
2019-03-05T12:33:34.703Z,37824.00
2019-03-05T12:34:34.670Z,13092.00
2019-03-05T12:35:35.614Z,9584.00
2019-03-05T12:36:34.650Z,12284.00
2019-03-05T12:37:34.637Z,9216.00
2019-03-05T12:38:34.630Z,9320.00
2019-03-05T12:39:34.614Z,38496.00
2019-03-05T12:40:34.610Z,12440.00
2019-03-05T12:41:34.591Z,12332.00
2019-03-05T12:42:34.580Z,39232.00
2019-03-05T12:43:34.579Z,36128.00
2019-03-05T12:44:34.558Z,35104.00
2019-03-05T12:45:34.546Z,35744.00
2019-03-05T12:46:34.540Z,29792.00
2019-03-05T12:47:34.528Z,38752.00
2019-03-05T12:48:39.916Z,8668.00
2019-03-05T12:49:58.978Z,27392.00
2019-03-05T12:50:58.966Z,29664.00
2019-03-05T12:51:58.960Z,29440.00
2019-03-05T12:52:58.952Z,29696.00
2019-03-05T12:53:58.933Z,29440.00
2019-03-05T12:54:58.928Z,28544.00
2019-03-05T12:55:58.919Z,27584.00
2019-03-05T12:56:58.901Z,9824.00
2019-03-05T12:57:58.891Z,29760.00
2019-03-05T12:58:58.878Z,8100.00
2019-03-05T12:59:58.867Z,7564.00
2019-03-05T13:00:58.861Z,6720.00
2019-03-05T13:01:58.862Z,5384.00
2019-03-05T13:02:58.845Z,4028.00
2019-03-05T13:03:58.829Z,3004.00
2019-03-05T13:04:58.812Z,2068.00
2019-03-05T13:05:58.800Z,1576.00
2019-03-05T13:06:58.791Z,1384.00
2019-03-05T13:07:58.781Z,1384.00
2019-03-05T13:08:58.766Z,1480.00
2019-03-05T13:09:58.764Z,1616.00
2019-03-05T13:10:58.749Z,2260.00
2019-03-05T13:11:58.742Z,10892.00
2019-03-05T13:12:58.724Z,19808.00
2019-03-05T13:14:06.044Z,13432.00
2019-03-05T13:14:59.719Z,13628.00
2019-03-05T13:15:58.689Z,7920.00
2019-03-05T13:16:58.679Z,14384.00
2019-03-05T13:17:58.668Z,14904.00
2019-03-05T13:18:58.656Z,14300.00
2019-03-05T13:19:58.645Z,16220.00
2019-03-05T13:20:58.642Z,7536.00
2019-03-05T13:21:58.622Z,15176.00
2019-03-05T13:22:58.618Z,16816.00
2019-03-05T13:23:58.600Z,15980.00
2019-03-05T13:24:58.588Z,15380.00
2019-03-05T13:25:58.579Z,15524.00
2019-03-05T13:26:58.570Z,14840.00
2019-03-05T13:28:02.285Z,14324.00
2019-03-05T13:28:58.546Z,13912.00
2019-03-05T13:29:58.538Z,10992.00
2019-03-05T13:31:00.468Z,8732.00
2019-03-05T13:32:22.987Z,8284.00
2019-03-05T13:33:22.975Z,7784.00
2019-03-05T13:34:22.966Z,7280.00
2019-03-05T13:35:25.450Z,6908.00
2019-03-05T13:36:50.619Z,6420.00
2019-03-05T13:37:47.407Z,5404.00
2019-03-05T13:38:47.396Z,4736.00
2019-03-05T13:39:47.389Z,5044.00
2019-03-05T13:40:47.380Z,6784.00
2019-03-05T13:41:50.459Z,6920.00
2019-03-05T13:43:11.834Z,7976.00
2019-03-05T13:44:11.820Z,7552.00
2019-03-05T13:45:11.806Z,8080.00
2019-03-05T13:46:11.793Z,8256.00
2019-03-05T13:47:13.412Z,6072.00
2019-03-05T13:48:14.877Z,4248.00
2019-03-05T13:49:40.664Z,4096.00
2019-03-05T13:50:36.230Z,3512.00
2019-03-05T13:51:36.219Z,3712.00
2019-03-05T13:52:37.047Z,6548.00
2019-03-05T13:53:36.210Z,9716.00
2019-03-05T13:54:36.817Z,9284.00
2019-03-05T13:55:36.175Z,7892.00
2019-03-05T13:56:37.872Z,7284.00
2019-03-05T13:57:36.154Z,7740.00
2019-03-05T13:58:36.140Z,7472.00
2019-03-05T13:59:36.129Z,6532.00
2019-03-05T14:00:36.120Z,5416.00
2019-03-05T14:01:36.107Z,4744.00
2019-03-05T14:02:36.100Z,4384.00
2019-03-05T14:03:36.087Z,3840.00
2019-03-05T14:04:36.075Z,3456.00
2019-03-05T14:05:36.061Z,3200.00
2019-03-05T14:06:36.058Z,2904.00
2019-03-05T14:07:36.046Z,2796.00
2019-03-05T14:08:36.035Z,2724.00
2019-03-05T14:09:36.015Z,2668.00
2019-03-05T14:10:36.034Z,2632.00
2019-03-05T14:11:36.006Z,2652.00
2019-03-05T14:12:35.989Z,2720.00
2019-03-05T14:13:35.970Z,2744.00
2019-03-05T14:14:35.960Z,2684.00
2019-03-05T14:15:35.973Z,2612.00
2019-03-05T14:16:35.951Z,2600.00
2019-03-05T14:17:35.948Z,2608.00
2019-03-05T14:18:35.918Z,2592.00
2019-03-05T14:19:35.934Z,2568.00
2019-03-05T14:20:35.906Z,2564.00
2019-03-05T14:21:35.881Z,2580.00
2019-03-05T14:22:35.891Z,2588.00
2019-03-05T14:23:35.951Z,2592.00
2019-03-05T14:24:35.938Z,2560.00
2019-03-05T14:25:35.848Z,2576.00
2019-03-05T14:26:35.833Z,2648.00
2019-03-05T14:27:35.836Z,2632.00
2019-03-05T14:28:35.803Z,2540.00
2019-03-05T14:29:35.803Z,2468.00
2019-03-05T14:30:35.782Z,2464.00
2019-03-05T14:31:35.796Z,2452.00
2019-03-05T14:32:35.852Z,2500.00
2019-03-05T14:33:35.777Z,2696.00
2019-03-05T14:34:35.736Z,2720.00
2019-03-05T14:35:35.720Z,2804.00
2019-03-05T14:36:35.738Z,3020.00
2019-03-05T14:37:35.722Z,2992.00
2019-03-05T14:38:35.716Z,2944.00
2019-03-05T14:39:35.689Z,3124.00
2019-03-05T14:40:37.848Z,3048.00
2019-03-05T14:41:35.654Z,3192.00
2019-03-05T14:42:35.673Z,3224.00
2019-03-05T14:43:35.635Z,2964.00
2019-03-05T14:44:39.905Z,2872.00
2019-03-05T14:45:35.633Z,2940.00
2019-03-05T14:46:35.675Z,2944.00
2019-03-05T14:47:35.658Z,2716.00
2019-03-05T14:48:35.586Z,3092.00
2019-03-05T14:49:35.575Z,3300.00
2019-03-05T14:50:35.583Z,3508.00
2019-03-05T14:51:35.583Z,3676.00
2019-03-05T14:52:35.531Z,4080.00
2019-03-05T14:53:35.544Z,4264.00
2019-03-05T14:54:35.511Z,4548.00
2019-03-05T14:55:35.527Z,4180.00
2019-03-05T14:56:35.517Z,4120.00
2019-03-05T14:57:35.471Z,3876.00
2019-03-05T14:58:35.496Z,3596.00
2019-03-05T14:59:35.470Z,3604.00
2019-03-05T15:00:35.458Z,3692.00
2019-03-05T15:01:35.445Z,3844.00
2019-03-05T15:02:35.457Z,3964.00
2019-03-05T15:03:35.435Z,3312.00
2019-03-05T15:04:35.433Z,2744.00
2019-03-05T15:05:35.391Z,2424.00
2019-03-05T15:06:35.370Z,2648.00
2019-03-05T15:07:35.395Z,3048.00
2019-03-05T15:08:35.374Z,2932.00
2019-03-05T15:09:35.343Z,3280.00
2019-03-05T15:10:35.336Z,3188.00
2019-03-05T15:11:35.341Z,3184.00
2019-03-05T15:12:35.309Z,2924.00
2019-03-05T15:13:35.314Z,1856.00
2019-03-05T15:14:35.279Z,1536.00
2019-03-05T15:15:35.268Z,1512.00
2019-03-05T15:16:35.265Z,1624.00
2019-03-05T15:17:35.281Z,1464.00
2019-03-05T15:18:35.249Z,1152.00
2019-03-05T15:19:35.260Z,884.00
2019-03-05T15:20:35.233Z,712.00
2019-03-05T15:21:35.223Z,776.00
2019-03-05T15:22:35.199Z,816.00
2019-03-05T15:23:35.207Z,852.00
2019-03-05T15:24:35.188Z,880.00
2019-03-05T15:25:35.190Z,852.00
2019-03-05T15:26:35.159Z,740.00
2019-03-05T15:27:35.133Z,612.00
2019-03-05T15:28:35.145Z,588.00
2019-03-05T15:29:35.160Z,588.00
2019-03-05T15:30:35.126Z,576.00
2019-03-05T15:31:35.093Z,536.00
2019-03-05T15:32:35.078Z,468.00
2019-03-05T15:33:35.066Z,400.00
2019-03-05T15:34:35.080Z,364.00
2019-03-05T15:35:35.077Z,312.00
2019-03-05T15:36:35.082Z,420.00
2019-03-05T15:37:35.063Z,688.00
2019-03-05T15:38:35.011Z,816.00
2019-03-05T15:39:35.042Z,888.00
2019-03-05T15:40:35.150Z,964.00
2019-03-05T15:41:35.035Z,992.00
2019-03-05T15:42:34.967Z,1064.00
2019-03-05T15:43:34.983Z,1152.00
2019-03-05T15:44:34.944Z,1116.00
2019-03-05T15:45:34.991Z,1092.00
2019-03-05T15:46:34.938Z,1096.00
2019-03-05T15:47:34.956Z,1104.00
2019-03-05T15:48:34.899Z,1116.00
2019-03-05T15:49:34.927Z,1204.00
2019-03-05T15:50:34.877Z,1224.00
2019-03-05T15:51:34.880Z,1112.00
2019-03-05T15:52:34.896Z,1032.00
2019-03-05T15:53:34.850Z,1004.00
2019-03-05T15:54:34.831Z,980.00
2019-03-05T15:55:34.825Z,948.00
2019-03-05T15:56:34.811Z,912.00
2019-03-05T15:57:34.795Z,892.00
2019-03-05T15:58:34.783Z,920.00
2019-03-05T15:59:34.800Z,1068.00
2019-03-05T16:00:34.761Z,1188.00
2019-03-05T16:01:34.749Z,1252.00
2019-03-05T16:02:34.755Z,1200.00
2019-03-05T16:03:34.725Z,1132.00
2019-03-05T16:04:35.921Z,1088.00
2019-03-05T16:05:34.702Z,948.00
2019-03-05T16:06:35.270Z,844.00
2019-03-05T16:07:34.682Z,792.00
2019-03-05T16:08:34.670Z,756.00
2019-03-05T16:09:35.026Z,728.00
2019-03-05T16:10:34.656Z,696.00
2019-03-05T16:11:35.236Z,664.00
2019-03-05T16:12:34.621Z,636.00
2019-03-05T16:13:34.607Z,624.00
2019-03-05T16:14:34.600Z,588.00
2019-03-05T16:15:34.587Z,532.00
2019-03-05T16:16:34.574Z,468.00
2019-03-05T16:17:34.563Z,412.00
2019-03-05T16:18:34.550Z,360.00
2019-03-05T16:19:34.537Z,288.00
2019-03-05T16:20:34.529Z,208.00
2019-03-05T16:21:37.214Z,132.00
2019-03-05T16:22:58.987Z,80.00
2019-03-05T16:24:01.689Z,76.00
2019-03-05T16:24:58.968Z,60.00
2019-03-05T16:25:58.944Z,40.00
2019-03-05T16:26:58.938Z,48.00
2019-03-05T16:28:02.179Z,48.00
2019-03-05T16:28:59.928Z,36.00
2019-03-05T16:29:58.901Z,28.00
2019-03-05T16:30:58.894Z,24.00
2019-03-05T16:31:58.878Z,24.00
2019-03-05T16:33:00.011Z,20.00
2019-03-05T16:33:58.851Z,24.00
2019-03-05T16:34:58.840Z,32.00
2019-03-05T16:35:58.846Z,44.00
2019-03-05T16:37:01.963Z,56.00
2019-03-05T16:38:23.333Z,76.00
2019-03-05T16:39:27.451Z,96.00
2019-03-05T16:40:47.782Z,120.00
2019-03-05T16:41:47.773Z,124.00
2019-03-05T16:42:47.763Z,128.00
2019-03-05T16:43:47.747Z,132.00
2019-03-05T16:44:47.737Z,128.00
2019-03-05T16:45:47.726Z,120.00
2019-03-05T16:46:47.717Z,112.00
2019-03-05T16:47:47.707Z,112.00
2019-03-05T16:48:47.692Z,104.00
2019-03-05T16:49:47.685Z,100.00
2019-03-05T16:50:47.677Z,92.00
2019-03-05T16:51:47.669Z,84.00
2019-03-05T16:52:47.650Z,76.00
2019-03-05T16:53:47.645Z,68.00
2019-03-05T16:54:47.636Z,64.00
2019-03-05T16:55:47.619Z,60.00
2019-03-05T16:56:47.604Z,52.00
2019-03-05T16:57:47.591Z,44.00
2019-03-05T16:58:47.582Z,40.00
2019-03-05T16:59:47.570Z,36.00
2019-03-05T17:00:49.192Z,28.00
2019-03-05T17:01:47.549Z,20.00
2019-03-05T17:02:47.536Z,20.00
2019-03-05T17:03:47.526Z,16.00
2019-03-05T17:04:47.520Z,12.00
2019-03-05T17:05:47.510Z,8.00
2019-03-05T17:06:47.495Z,8.00
2019-03-05T17:07:47.483Z,8.00
2019-03-05T17:08:47.473Z,8.00
2019-03-05T17:09:47.464Z,8.00
2019-03-05T17:10:47.448Z,8.00
2019-03-05T17:11:47.439Z,8.00
2019-03-05T17:12:47.427Z,8.00
2019-03-05T17:13:47.416Z,4.00
2019-03-05T17:14:47.403Z,8.00
2019-03-05T17:15:47.393Z,4.00
2019-03-05T17:16:47.383Z,4.00
2019-03-05T17:17:47.375Z,4.00
2019-03-05T17:18:47.364Z,4.00
2019-03-05T17:19:47.349Z,0.00
2019-03-05T17:20:47.337Z,4.00
2019-03-05T17:21:47.326Z,4.00
2019-03-05T17:22:47.318Z,4.00
2019-03-05T17:23:47.306Z,4.00
2019-03-05T17:24:47.292Z,4.00
2019-03-05T17:25:47.282Z,4.00
2019-03-05T17:26:47.269Z,4.00
2019-03-05T17:27:47.258Z,4.00